createdAt,value
2019-04-25T00:01:53.875Z,1.10
2019-04-25T00:04:31.576Z,1.10
2019-04-25T00:07:00.040Z,1.13
2019-04-25T00:09:31.716Z,1.00
2019-04-25T00:12:00.036Z,1.40
2019-04-25T00:14:31.346Z,1.00
2019-04-25T00:17:02.569Z,1.30
2019-04-25T00:19:31.673Z,1.40
2019-04-25T00:22:21.827Z,1.20
2019-04-25T00:25:15.895Z,1.13
2019-04-25T00:27:39.138Z,1.40
2019-04-25T00:30:07.589Z,1.10
2019-04-25T00:32:36.016Z,1.13
2019-04-25T00:35:04.651Z,1.03
2019-04-25T00:37:33.007Z,1.03
2019-04-25T00:40:01.608Z,1.20
2019-04-25T00:42:31.883Z,1.10
2019-04-25T00:45:00.041Z,1.10
2019-04-25T00:47:28.564Z,1.10
2019-04-25T00:49:56.912Z,1.10
2019-04-25T00:52:25.270Z,0.90
2019-04-25T00:54:53.512Z,1.20
2019-04-25T00:57:22.091Z,1.10
2019-04-25T00:59:56.194Z,1.33
2019-04-25T01:02:46.261Z,1.20
2019-04-25T01:05:14.566Z,1.10
2019-04-25T01:07:44.264Z,1.10
2019-04-25T01:10:13.386Z,1.10
2019-04-25T01:12:41.740Z,1.10
2019-04-25T01:15:11.635Z,1.03
2019-04-25T01:17:41.328Z,1.23
2019-04-25T01:20:10.108Z,1.13
2019-04-25T01:22:38.381Z,0.90
2019-04-25T01:25:06.775Z,1.10
2019-04-25T01:27:35.105Z,1.07
2019-04-25T01:30:04.013Z,1.00
2019-04-25T01:32:37.735Z,1.10
2019-04-25T01:35:41.128Z,1.00
2019-04-25T01:38:28.391Z,0.90
2019-04-25T01:41:14.662Z,1.17
2019-04-25T01:43:47.383Z,0.90
2019-04-25T01:46:16.939Z,1.33
2019-04-25T01:48:46.193Z,1.03
2019-04-25T01:51:14.407Z,1.43
2019-04-25T01:53:44.119Z,1.30
2019-04-25T01:56:13.525Z,1.40
2019-04-25T01:58:43.761Z,1.00
2019-04-25T02:01:14.316Z,1.23
2019-04-25T02:03:44.154Z,1.00
2019-04-25T02:06:40.611Z,1.40
2019-04-25T02:09:11.595Z,1.10
2019-04-25T02:11:54.390Z,1.17
2019-04-25T02:14:23.679Z,1.10
2019-04-25T02:16:53.202Z,1.00
2019-04-25T02:19:22.224Z,1.30
2019-04-25T02:21:51.441Z,1.13
2019-04-25T02:24:20.999Z,1.20
2019-04-25T02:26:49.263Z,1.20
2019-04-25T02:29:17.722Z,1.20
2019-04-25T02:31:46.534Z,1.00
2019-04-25T02:34:17.935Z,1.20
2019-04-25T02:36:46.986Z,1.10
2019-04-25T02:39:17.715Z,1.00
2019-04-25T02:41:45.994Z,1.27
2019-04-25T02:44:14.622Z,1.40
2019-04-25T02:47:10.799Z,1.27
2019-04-25T02:49:58.943Z,1.07
2019-04-25T02:52:49.626Z,1.20
2019-04-25T02:55:30.882Z,1.20
2019-04-25T02:57:48.418Z,1.13
2019-04-25T03:00:24.974Z,1.40
2019-04-25T03:02:54.775Z,1.30
2019-04-25T03:05:25.452Z,1.30
2019-04-25T03:07:54.496Z,1.30
2019-04-25T03:10:26.744Z,1.10
2019-04-25T03:12:54.489Z,1.23
2019-04-25T03:15:24.404Z,1.30
2019-04-25T03:17:54.594Z,1.40
2019-04-25T03:20:51.248Z,1.40
2019-04-25T03:23:42.051Z,1.60
2019-04-25T03:26:09.121Z,1.43
2019-04-25T03:28:37.641Z,1.30
2019-04-25T03:31:11.363Z,1.47
2019-04-25T03:33:38.403Z,1.20
2019-04-25T03:36:06.837Z,1.50
2019-04-25T03:38:35.930Z,1.40
2019-04-25T03:41:04.874Z,1.50
2019-04-25T03:43:34.376Z,1.40
2019-04-25T03:46:04.961Z,1.47
2019-04-25T03:48:35.218Z,1.37
2019-04-25T03:51:04.596Z,1.50
2019-04-25T03:53:33.781Z,1.40
2019-04-25T03:56:04.466Z,1.40
2019-04-25T03:58:33.753Z,1.47
2019-04-25T04:01:03.882Z,1.30
2019-04-25T04:03:33.815Z,1.40
2019-04-25T04:06:04.376Z,1.50
2019-04-25T04:08:32.227Z,2.47
2019-04-25T04:11:01.844Z,1.90
2019-04-25T04:13:30.451Z,1.77
2019-04-25T04:15:58.719Z,2.00
2019-04-25T04:18:47.180Z,2.20
2019-04-25T04:21:37.397Z,1.40
2019-04-25T04:24:18.843Z,1.80
2019-04-25T04:27:09.095Z,1.43
2019-04-25T04:29:45.504Z,1.70
2019-04-25T04:32:14.820Z,2.17
2019-04-25T04:34:45.522Z,1.90
2019-04-25T04:37:14.831Z,1.67
2019-04-25T04:39:44.175Z,1.63
2019-04-25T04:42:14.047Z,1.50
2019-04-25T04:44:43.729Z,1.50
2019-04-25T04:47:14.063Z,1.80
2019-04-25T04:49:48.571Z,1.60
2019-04-25T04:52:17.631Z,1.80
2019-04-25T04:54:45.891Z,1.77
2019-04-25T04:57:23.457Z,1.80
2019-04-25T04:59:44.081Z,1.83
2019-04-25T05:02:49.659Z,1.77
2019-04-25T05:05:53.551Z,1.50
2019-04-25T05:08:34.556Z,1.80
2019-04-25T05:11:04.034Z,1.53
2019-04-25T05:13:34.016Z,2.00
2019-04-25T05:16:04.289Z,1.47
2019-04-25T05:18:38.048Z,1.50
2019-04-25T05:21:04.240Z,1.30
2019-04-25T05:23:38.398Z,1.50
2019-04-25T05:26:06.913Z,1.40
2019-04-25T05:28:35.248Z,1.20
2019-04-25T05:31:27.105Z,1.40
2019-04-25T05:33:55.457Z,1.47
2019-04-25T05:36:25.667Z,1.43
2019-04-25T05:38:54.038Z,1.47
2019-04-25T05:41:31.752Z,1.30
2019-04-25T05:44:00.029Z,1.30
2019-04-25T05:46:28.147Z,1.20
2019-04-25T05:48:56.283Z,1.27
2019-04-25T05:51:25.090Z,1.27
2019-04-25T05:53:55.207Z,1.80
2019-04-25T05:56:25.818Z,1.53
2019-04-25T05:58:53.297Z,1.43
2019-04-25T06:01:21.616Z,1.63
2019-04-25T06:03:50.610Z,1.50
2019-04-25T06:06:19.231Z,1.60
2019-04-25T06:08:54.221Z,1.60
2019-04-25T06:11:38.458Z,1.53
2019-04-25T06:14:08.685Z,1.50
2019-04-25T06:16:37.972Z,1.30
2019-04-25T06:19:18.542Z,1.43
2019-04-25T06:21:43.884Z,1.60
2019-04-25T06:24:30.260Z,1.40
2019-04-25T06:27:24.331Z,1.43
2019-04-25T06:30:04.197Z,1.50
2019-04-25T06:32:35.079Z,1.43
2019-04-25T06:35:04.114Z,1.37
2019-04-25T06:37:33.987Z,1.60
2019-04-25T06:40:03.482Z,1.87
2019-04-25T06:42:34.354Z,1.27
2019-04-25T06:45:10.169Z,1.73
2019-04-25T06:47:57.887Z,1.50
2019-04-25T06:50:27.036Z,1.80
2019-04-25T06:52:55.491Z,1.70
2019-04-25T06:55:25.902Z,1.40
2019-04-25T06:57:54.026Z,1.60
2019-04-25T07:00:24.274Z,1.43
2019-04-25T07:02:53.220Z,1.80
2019-04-25T07:05:29.003Z,1.60
2019-04-25T07:07:53.376Z,1.50
2019-04-25T07:10:23.220Z,1.60
2019-04-25T07:12:51.705Z,1.40
2019-04-25T07:15:20.072Z,1.80
2019-04-25T07:17:48.376Z,1.40
2019-04-25T07:20:16.715Z,1.43
2019-04-25T07:22:46.901Z,1.60
2019-04-25T07:25:15.164Z,1.40
2019-04-25T07:28:08.081Z,1.40
2019-04-25T07:30:58.491Z,1.40
2019-04-25T07:33:33.283Z,1.27
2019-04-25T07:36:01.529Z,1.40
2019-04-25T07:38:29.653Z,1.40
2019-04-25T07:41:05.886Z,1.33
2019-04-25T07:43:35.195Z,1.40
2019-04-25T07:46:04.185Z,1.40
2019-04-25T07:48:36.324Z,1.70
2019-04-25T07:51:03.717Z,1.30
2019-04-25T07:53:33.922Z,1.03
2019-04-25T07:56:01.841Z,1.40
2019-04-25T07:58:49.641Z,1.50
2019-04-25T08:01:10.900Z,1.10
2019-04-25T08:03:39.232Z,1.20
2019-04-25T08:06:07.396Z,1.30
2019-04-25T08:08:36.093Z,1.30
2019-04-25T08:11:06.512Z,0.90
2019-04-25T08:13:49.713Z,1.30
2019-04-25T08:16:18.887Z,1.03
2019-04-25T08:18:49.070Z,1.10
2019-04-25T08:21:18.027Z,1.27
2019-04-25T08:23:49.359Z,1.00
2019-04-25T08:26:17.815Z,1.30
2019-04-25T08:28:55.041Z,1.27
2019-04-25T08:31:16.032Z,1.13
2019-04-25T08:33:46.563Z,1.20
2019-04-25T08:36:15.056Z,1.03
2019-04-25T08:38:44.782Z,1.17
2019-04-25T08:41:14.136Z,1.00
2019-04-25T08:43:45.033Z,1.40
2019-04-25T08:46:14.305Z,1.17
2019-04-25T08:49:11.298Z,0.93
2019-04-25T08:51:40.973Z,1.00
2019-04-25T08:54:16.918Z,0.93
2019-04-25T08:56:49.126Z,1.10
2019-04-25T08:59:40.728Z,1.10
2019-04-25T09:02:18.106Z,0.90
2019-04-25T09:05:06.992Z,1.20
2019-04-25T09:07:37.758Z,1.23
2019-04-25T09:10:08.969Z,1.00
2019-04-25T09:12:37.788Z,1.10
2019-04-25T09:15:06.898Z,1.13
2019-04-25T09:17:35.867Z,1.00
2019-04-25T09:20:07.805Z,1.03
2019-04-25T09:22:37.403Z,1.03
2019-04-25T09:25:08.024Z,1.50
2019-04-25T09:27:40.566Z,1.00
2019-04-25T09:30:08.928Z,1.10
2019-04-25T09:32:37.348Z,1.10
2019-04-25T09:35:05.723Z,0.93
2019-04-25T09:37:35.339Z,1.10
2019-04-25T09:40:16.885Z,1.20
2019-04-25T09:42:46.361Z,1.10
2019-04-25T09:45:36.133Z,1.17
2019-04-25T09:48:24.140Z,0.87
2019-04-25T09:50:57.995Z,1.13
2019-04-25T09:53:26.350Z,0.90
2019-04-25T09:56:09.266Z,1.17
2019-04-25T09:58:50.430Z,0.90
2019-04-25T10:01:18.656Z,0.93
2019-04-25T10:03:47.352Z,1.13
2019-04-25T10:06:16.967Z,1.20
2019-04-25T10:08:46.262Z,1.10
2019-04-25T10:11:14.779Z,0.70
2019-04-25T10:13:46.326Z,0.90
2019-04-25T10:16:15.258Z,0.97
2019-04-25T10:18:45.788Z,1.10
2019-04-25T10:21:14.735Z,1.00
2019-04-25T10:23:45.013Z,1.00
2019-04-25T10:26:14.111Z,0.80
2019-04-25T10:28:44.033Z,1.00
2019-04-25T10:31:13.635Z,0.90
2019-04-25T10:33:46.671Z,1.20
2019-04-25T10:36:15.310Z,1.00
2019-04-25T10:39:00.575Z,1.33
2019-04-25T10:41:16.661Z,1.20
2019-04-25T10:43:45.989Z,0.80
2019-04-25T10:46:14.791Z,0.90
2019-04-25T10:48:44.079Z,1.10
2019-04-25T10:51:13.854Z,0.90
2019-04-25T10:53:43.811Z,1.10
2019-04-25T10:56:13.968Z,1.10
2019-04-25T10:58:44.453Z,1.33
2019-04-25T11:01:15.057Z,0.80
2019-04-25T11:04:06.482Z,1.43
2019-04-25T11:06:35.059Z,0.70
2019-04-25T11:09:03.545Z,1.23
2019-04-25T11:11:34.198Z,0.97
2019-04-25T11:14:03.358Z,0.90
2019-04-25T11:16:33.268Z,1.53
2019-04-25T11:19:01.687Z,1.20
2019-04-25T11:21:30.180Z,0.73
2019-04-25T11:24:00.315Z,1.00
2019-04-25T11:26:28.488Z,1.30
2019-04-25T11:28:56.967Z,0.73
2019-04-25T11:31:29.843Z,1.00
2019-04-25T11:33:58.064Z,0.90
2019-04-25T11:36:26.243Z,0.80
2019-04-25T11:39:31.934Z,0.80
2019-04-25T11:42:00.536Z,0.77
2019-04-25T11:44:29.087Z,0.93
2019-04-25T11:46:58.841Z,0.93
2019-04-25T11:49:27.003Z,1.20
2019-04-25T11:51:55.345Z,1.10
2019-04-25T11:54:24.285Z,0.90
2019-04-25T11:56:54.373Z,0.83
2019-04-25T11:59:23.502Z,1.17
2019-04-25T12:01:52.303Z,1.07
2019-04-25T12:04:20.701Z,1.00
2019-04-25T12:06:48.900Z,0.90
2019-04-25T12:09:17.618Z,0.87
2019-04-25T12:11:47.182Z,0.90
2019-04-25T12:14:15.921Z,0.83
2019-04-25T12:16:48.448Z,0.90
2019-04-25T12:19:14.027Z,1.00
2019-04-25T12:21:44.479Z,1.07
2019-04-25T12:24:13.715Z,0.90
2019-04-25T12:26:43.756Z,1.00
2019-04-25T12:29:12.033Z,1.43
2019-04-25T12:31:40.327Z,1.00
2019-04-25T12:34:08.502Z,1.00
2019-04-25T12:36:36.895Z,0.67
2019-04-25T12:39:07.169Z,0.63
2019-04-25T12:41:35.522Z,1.17
2019-04-25T12:44:25.592Z,1.10
2019-04-25T12:46:55.634Z,1.30
2019-04-25T12:49:24.264Z,0.77
2019-04-25T12:51:52.683Z,0.93
2019-04-25T12:54:21.150Z,0.73
2019-04-25T12:56:49.361Z,1.07
2019-04-25T12:59:18.026Z,1.17
2019-04-25T13:01:46.376Z,0.90
2019-04-25T13:04:14.569Z,1.00
2019-04-25T13:06:43.767Z,0.90
2019-04-25T13:09:12.522Z,0.80
2019-04-25T13:11:43.764Z,0.80
2019-04-25T13:14:13.486Z,0.97
2019-04-25T13:16:41.669Z,1.23
2019-04-25T13:19:20.078Z,0.90
2019-04-25T13:21:39.720Z,0.90
2019-04-25T13:24:08.042Z,1.20
2019-04-25T13:26:43.520Z,1.03
2019-04-25T13:29:40.032Z,0.90
2019-04-25T13:32:42.752Z,0.80
2019-04-25T13:35:18.335Z,1.07
2019-04-25T13:37:49.033Z,1.10
2019-04-25T13:40:18.486Z,1.00
2019-04-25T13:42:46.783Z,1.30
2019-04-25T13:45:15.815Z,0.90
2019-04-25T13:47:44.095Z,0.77
2019-04-25T13:50:12.947Z,0.83
2019-04-25T13:52:43.272Z,1.20
2019-04-25T13:55:13.667Z,0.60
2019-04-25T13:57:41.974Z,0.87
2019-04-25T14:00:10.920Z,1.20
2019-04-25T14:02:39.513Z,0.90
2019-04-25T14:05:08.660Z,1.00
2019-04-25T14:07:36.899Z,1.00
2019-04-25T14:10:05.654Z,1.03
2019-04-25T14:12:34.301Z,0.97
2019-04-25T14:15:03.915Z,1.00
2019-04-25T14:17:50.551Z,0.77
2019-04-25T14:20:27.954Z,0.90
2019-04-25T14:22:56.474Z,0.93
2019-04-25T14:25:26.887Z,0.80
2019-04-25T14:27:54.649Z,0.90
2019-04-25T14:30:25.266Z,0.90
2019-04-25T14:32:54.375Z,0.80
2019-04-25T14:35:24.095Z,1.00
2019-04-25T14:37:53.841Z,1.13
2019-04-25T14:40:23.026Z,1.40
2019-04-25T14:42:52.590Z,1.07
2019-04-25T14:45:21.562Z,1.00
2019-04-25T14:47:51.083Z,0.90
2019-04-25T14:50:19.340Z,1.10
2019-04-25T14:52:47.907Z,0.90
2019-04-25T14:55:31.705Z,0.90
2019-04-25T14:58:00.463Z,0.83
2019-04-25T15:00:36.198Z,0.90
2019-04-25T15:03:05.601Z,1.10
2019-04-25T15:05:33.779Z,1.07
2019-04-25T15:08:02.171Z,1.13
2019-04-25T15:10:30.754Z,0.80
2019-04-25T15:12:59.185Z,0.90
2019-04-25T15:15:27.388Z,1.30
2019-04-25T15:17:56.013Z,0.93
2019-04-25T15:20:24.861Z,1.07
2019-04-25T15:22:53.296Z,0.90
2019-04-25T15:25:21.988Z,0.93
2019-04-25T15:27:57.260Z,0.93
2019-04-25T15:30:34.532Z,0.90
2019-04-25T15:33:05.116Z,1.00
2019-04-25T15:35:55.003Z,1.07
2019-04-25T15:38:46.701Z,1.07
2019-04-25T15:41:22.440Z,1.03
2019-04-25T15:44:25.156Z,0.90
2019-04-25T15:46:54.743Z,1.70
2019-04-25T15:49:22.843Z,1.10
2019-04-25T15:51:51.185Z,0.73
2019-04-25T15:54:19.486Z,0.93
2019-04-25T15:56:47.764Z,1.10
2019-04-25T15:59:16.024Z,1.00
2019-04-25T16:01:44.239Z,0.93
2019-04-25T16:04:12.461Z,1.00
2019-04-25T16:06:40.804Z,1.23
2019-04-25T16:09:10.544Z,1.03
2019-04-25T16:11:39.088Z,1.00
2019-04-25T16:14:07.664Z,0.90
2019-04-25T16:16:35.967Z,0.90
2019-04-25T16:19:04.142Z,1.00
2019-04-25T16:21:34.380Z,0.90
2019-04-25T16:24:03.151Z,1.10
2019-04-25T16:26:31.488Z,1.10
2019-04-25T16:29:00.054Z,1.23
2019-04-25T16:31:29.205Z,1.10
2019-04-25T16:33:57.787Z,1.67
2019-04-25T16:36:25.990Z,1.20
2019-04-25T16:38:54.190Z,1.07
2019-04-25T16:41:24.058Z,1.33
2019-04-25T16:43:57.190Z,1.73
2019-04-25T16:46:25.904Z,1.30
2019-04-25T16:48:54.111Z,1.57
2019-04-25T16:51:22.543Z,1.13
2019-04-25T16:53:50.975Z,1.27
2019-04-25T16:56:19.579Z,1.20
2019-04-25T16:58:47.807Z,1.20
2019-04-25T17:01:16.018Z,1.17
2019-04-25T17:03:45.246Z,1.10
2019-04-25T17:06:14.063Z,1.00
2019-04-25T17:08:42.535Z,1.00
2019-04-25T17:11:12.047Z,1.10
2019-04-25T17:13:46.285Z,1.27
2019-04-25T17:16:32.594Z,1.20
2019-04-25T17:19:04.645Z,0.87
2019-04-25T17:21:34.888Z,1.20
2019-04-25T17:24:03.239Z,0.93
2019-04-25T17:26:31.587Z,1.10
2019-04-25T17:29:03.475Z,1.10
2019-04-25T17:31:49.080Z,1.03
2019-04-25T17:34:38.937Z,0.87
2019-04-25T17:37:26.199Z,1.10
2019-04-25T17:40:00.608Z,0.87
2019-04-25T17:42:29.149Z,1.10
2019-04-25T17:44:57.386Z,0.87
2019-04-25T17:47:25.628Z,1.10
2019-04-25T17:49:53.883Z,0.97
2019-04-25T17:52:22.254Z,0.80
2019-04-25T17:54:50.595Z,0.80
2019-04-25T17:57:18.984Z,1.27
2019-04-25T17:59:47.334Z,1.47
2019-04-25T18:02:15.494Z,1.00
2019-04-25T18:04:44.540Z,1.00
2019-04-25T18:07:13.405Z,1.20
2019-04-25T18:09:43.957Z,1.00
2019-04-25T18:12:13.332Z,1.40
2019-04-25T18:14:42.617Z,1.60
2019-04-25T18:17:11.087Z,1.13
2019-04-25T18:19:43.593Z,1.20
2019-04-25T18:22:18.579Z,1.03
2019-04-25T18:25:15.316Z,1.30
2019-04-25T18:27:50.805Z,1.20
2019-04-25T18:30:19.190Z,1.50
2019-04-25T18:32:56.294Z,1.10
2019-04-25T18:35:31.150Z,1.00
2019-04-25T18:38:10.745Z,1.10
2019-04-25T18:40:57.913Z,1.00
2019-04-25T18:43:29.757Z,1.03
2019-04-25T18:46:01.869Z,1.00
2019-04-25T18:48:30.650Z,1.10
2019-04-25T18:50:58.864Z,1.33
2019-04-25T18:53:40.975Z,1.20
2019-04-25T18:56:28.178Z,1.20
2019-04-25T18:59:10.992Z,1.37
2019-04-25T19:01:53.024Z,1.80
2019-04-25T19:04:30.920Z,1.43
2019-04-25T19:06:59.218Z,1.27
2019-04-25T19:09:27.598Z,1.20
2019-04-25T19:11:56.167Z,1.23
2019-04-25T19:14:27.048Z,1.10
2019-04-25T19:16:54.436Z,1.20
2019-04-25T19:19:22.659Z,1.20
2019-04-25T19:21:51.943Z,1.37
2019-04-25T19:24:22.342Z,1.10
2019-04-25T19:26:50.722Z,1.20
2019-04-25T19:29:19.460Z,1.00
2019-04-25T19:31:48.398Z,1.43
2019-04-25T19:34:18.650Z,1.20
2019-04-25T19:36:46.982Z,1.53
2019-04-25T19:39:18.028Z,1.27
2019-04-25T19:41:52.203Z,1.20
2019-04-25T19:44:24.210Z,1.50
2019-04-25T19:46:53.240Z,1.40
2019-04-25T19:49:21.568Z,1.30
2019-04-25T19:51:49.807Z,1.63
2019-04-25T19:54:17.982Z,1.77
2019-04-25T19:56:46.332Z,1.70
2019-04-25T19:59:15.213Z,1.40
2019-04-25T20:01:44.070Z,1.60
2019-04-25T20:04:26.110Z,1.50
2019-04-25T20:07:14.308Z,1.83
2019-04-25T20:10:00.704Z,1.50
2019-04-25T20:12:32.930Z,1.60
2019-04-25T20:15:01.593Z,1.80
2019-04-25T20:17:30.191Z,1.73
2019-04-25T20:19:58.952Z,1.70
2019-04-25T20:22:27.598Z,2.00
2019-04-25T20:24:55.811Z,1.87
2019-04-25T20:27:24.211Z,2.10
2019-04-25T20:29:54.837Z,1.67
2019-04-25T20:32:25.829Z,2.00
2019-04-25T20:34:55.278Z,2.00
2019-04-25T20:37:23.570Z,1.87
2019-04-25T20:39:51.771Z,1.70
2019-04-25T20:42:20.412Z,2.30
2019-04-25T20:44:49.546Z,2.23
2019-04-25T20:47:18.841Z,2.00
2019-04-25T20:49:47.477Z,2.13
2019-04-25T20:52:15.651Z,2.10
2019-04-25T20:54:43.833Z,2.17
2019-04-25T20:57:13.646Z,1.80
2019-04-25T20:59:45.676Z,2.30
2019-04-25T21:02:16.265Z,2.17
2019-04-25T21:04:50.044Z,2.10
2019-04-25T21:07:18.256Z,2.37
2019-04-25T21:09:46.378Z,2.30
2019-04-25T21:12:14.666Z,2.57
2019-04-25T21:15:01.803Z,2.00
2019-04-25T21:17:49.860Z,2.07
2019-04-25T21:20:18.884Z,2.20
2019-04-25T21:22:50.522Z,2.20
2019-04-25T21:25:19.070Z,2.50
2019-04-25T21:27:47.364Z,2.50
2019-04-25T21:30:15.503Z,2.13
2019-04-25T21:32:53.122Z,2.10
2019-04-25T21:35:22.073Z,2.63
2019-04-25T21:37:52.168Z,2.40
2019-04-25T21:40:38.744Z,2.50
2019-04-25T21:43:19.863Z,2.43
2019-04-25T21:45:48.807Z,2.37
2019-04-25T21:48:17.599Z,2.37
2019-04-25T21:50:46.251Z,2.27
2019-04-25T21:53:14.457Z,2.27
2019-04-25T21:55:43.389Z,2.33
2019-04-25T21:58:11.973Z,2.23
2019-04-25T22:00:58.230Z,2.30
2019-04-25T22:03:26.766Z,2.23
2019-04-25T22:05:55.801Z,1.97
2019-04-25T22:08:25.252Z,2.23
2019-04-25T22:10:54.943Z,2.07
2019-04-25T22:13:24.270Z,2.20
2019-04-25T22:15:53.007Z,2.30
2019-04-25T22:18:21.940Z,1.93
2019-04-25T22:20:50.260Z,2.07
2019-04-25T22:23:36.941Z,2.07
2019-04-25T22:26:05.477Z,2.47
2019-04-25T22:28:34.329Z,2.10
2019-04-25T22:31:05.884Z,2.20
2019-04-25T22:33:59.813Z,2.03
2019-04-25T22:36:28.488Z,2.13
2019-04-25T22:39:12.478Z,2.30
2019-04-25T22:41:42.243Z,2.40
2019-04-25T22:44:12.384Z,2.20
2019-04-25T22:46:40.980Z,2.70
2019-04-25T22:49:09.306Z,2.67
2019-04-25T22:51:37.628Z,2.87
2019-04-25T22:54:07.229Z,2.50
2019-04-25T22:56:35.687Z,2.80
2019-04-25T22:59:04.826Z,3.20
2019-04-25T23:01:59.212Z,3.00
2019-04-25T23:04:36.752Z,2.70
2019-04-25T23:07:05.859Z,3.00
2019-04-25T23:09:36.535Z,3.33
2019-04-25T23:12:05.148Z,3.33
2019-04-25T23:14:34.791Z,2.80
2019-04-25T23:17:03.710Z,3.20
2019-04-25T23:19:32.515Z,3.10
2019-04-25T23:22:01.164Z,3.10
2019-04-25T23:24:32.171Z,2.97
2019-04-25T23:27:32.359Z,3.00
2019-04-25T23:30:00.537Z,3.03
2019-04-25T23:32:29.107Z,3.40
2019-04-25T23:34:57.405Z,3.37
2019-04-25T23:37:26.050Z,3.27
2019-04-25T23:39:54.324Z,3.53
2019-04-25T23:42:22.588Z,3.30
2019-04-25T23:44:50.960Z,3.03
2019-04-25T23:47:19.368Z,3.30
2019-04-25T23:49:47.557Z,3.30
2019-04-25T23:52:17.200Z,3.30
2019-04-25T23:54:45.652Z,3.50
2019-04-25T23:57:15.407Z,3.33
2019-04-25T23:59:43.799Z,3.50
